createdAt,value
2024-01-10T00:00:54.284Z,790.00
2024-01-10T00:01:54.306Z,787.00
2024-01-10T00:02:54.332Z,813.00
2024-01-10T00:03:54.401Z,790.00
2024-01-10T00:04:54.432Z,787.00
2024-01-10T00:05:54.479Z,801.00
2024-01-10T00:06:54.503Z,792.00
2024-01-10T00:07:54.641Z,798.00
2024-01-10T00:08:54.585Z,802.00
2024-01-10T00:09:54.614Z,795.00
2024-01-10T00:10:54.710Z,794.00
2024-01-10T00:11:54.716Z,802.00
2024-01-10T00:12:54.781Z,811.00
2024-01-10T00:13:54.866Z,804.00
2024-01-10T00:14:54.860Z,796.00
2024-01-10T00:15:54.902Z,810.00
2024-01-10T00:16:55.012Z,803.00
2024-01-10T00:17:55.051Z,799.00
2024-01-10T00:18:55.128Z,814.00
2024-01-10T00:19:55.203Z,796.00
2024-01-10T00:20:55.266Z,796.00
2024-01-10T00:21:55.344Z,794.00
2024-01-10T00:22:55.396Z,789.00
2024-01-10T00:23:55.424Z,806.00
2024-01-10T00:24:55.507Z,800.00
2024-01-10T00:25:55.572Z,800.00
2024-01-10T00:26:55.585Z,808.00
2024-01-10T00:27:55.593Z,801.00
2024-01-10T00:29:01.527Z,805.00
2024-01-10T00:29:56.693Z,805.00
2024-01-10T00:30:55.775Z,791.00
2024-01-10T00:31:55.671Z,808.00
2024-01-10T00:32:55.722Z,800.00
2024-01-10T00:33:55.779Z,806.00
2024-01-10T00:34:55.751Z,802.00
2024-01-10T00:35:55.705Z,797.00
2024-01-10T00:36:55.709Z,805.00
2024-01-10T00:37:55.748Z,804.00
2024-01-10T00:38:55.829Z,795.00
2024-01-10T00:39:55.937Z,803.00
2024-01-10T00:40:55.983Z,806.00
2024-01-10T00:41:55.999Z,808.00
2024-01-10T00:42:56.038Z,798.00
2024-01-10T00:43:56.089Z,810.00
2024-01-10T00:44:56.191Z,803.00
2024-01-10T00:45:56.328Z,819.00
2024-01-10T00:46:56.309Z,800.00
2024-01-10T00:47:56.440Z,792.00
2024-01-10T00:48:56.431Z,802.00
2024-01-10T00:49:56.506Z,809.00
2024-01-10T00:50:56.522Z,811.00
2024-01-10T00:51:56.576Z,807.00
2024-01-10T00:52:56.707Z,806.00
2024-01-10T00:53:56.749Z,802.00
2024-01-10T00:54:56.824Z,793.00
2024-01-10T00:55:56.916Z,790.00
2024-01-10T00:56:56.920Z,807.00
2024-01-10T00:57:56.976Z,794.00
2024-01-10T00:58:57.085Z,815.00
2024-01-10T00:59:57.155Z,812.00
2024-01-10T01:00:57.259Z,802.00
2024-01-10T01:01:57.278Z,811.00
2024-01-10T01:02:57.389Z,803.00
2024-01-10T01:03:57.379Z,806.00
2024-01-10T01:04:57.562Z,806.00
2024-01-10T01:05:57.588Z,805.00
2024-01-10T01:06:57.592Z,807.00
2024-01-10T01:07:57.717Z,815.00
2024-01-10T01:08:57.710Z,806.00
2024-01-10T01:09:57.775Z,804.00
2024-01-10T01:10:57.846Z,810.00
2024-01-10T01:11:57.908Z,808.00
2024-01-10T01:12:58.011Z,799.00
2024-01-10T01:13:58.134Z,795.00
2024-01-10T01:14:58.094Z,805.00
2024-01-10T01:15:58.134Z,809.00
2024-01-10T01:16:58.214Z,814.00
2024-01-10T01:17:58.266Z,806.00
2024-01-10T01:18:58.348Z,811.00
2024-01-10T01:19:58.406Z,816.00
2024-01-10T01:20:58.426Z,812.00
2024-01-10T01:21:58.453Z,803.00
2024-01-10T01:22:58.560Z,800.00
2024-01-10T01:23:58.592Z,803.00
2024-01-10T01:24:58.592Z,805.00
2024-01-10T01:25:58.684Z,812.00
2024-01-10T01:26:58.727Z,802.00
2024-01-10T01:27:58.784Z,809.00
2024-01-10T01:28:58.876Z,816.00
2024-01-10T01:29:58.908Z,806.00
2024-01-10T01:30:59.046Z,805.00
2024-01-10T01:31:59.070Z,803.00
2024-01-10T01:32:59.176Z,804.00
2024-01-10T01:33:59.206Z,815.00
2024-01-10T01:34:59.292Z,809.00
2024-01-10T01:35:59.300Z,804.00
2024-01-10T01:36:59.336Z,805.00
2024-01-10T01:37:59.464Z,802.00
2024-01-10T01:38:59.449Z,806.00
2024-01-10T01:39:59.527Z,805.00
2024-01-10T01:40:59.670Z,802.00
2024-01-10T01:41:59.686Z,806.00
2024-01-10T01:42:59.860Z,800.00
2024-01-10T01:43:59.796Z,809.00
2024-01-10T01:44:59.799Z,790.00
2024-01-10T01:45:59.898Z,813.00
2024-01-10T01:46:59.966Z,795.00
2024-01-10T01:48:00.319Z,800.00
2024-01-10T01:49:00.183Z,794.00
2024-01-10T01:50:00.263Z,801.00
2024-01-10T01:51:00.151Z,803.00
2024-01-10T01:52:00.251Z,799.00
2024-01-10T01:53:00.497Z,796.00
2024-01-10T01:54:00.383Z,794.00
2024-01-10T01:55:00.443Z,800.00
2024-01-10T01:56:00.560Z,807.00
2024-01-10T01:57:00.578Z,797.00
2024-01-10T01:58:00.697Z,795.00
2024-01-10T01:59:00.788Z,799.00
2024-01-10T02:00:00.875Z,813.00
2024-01-10T02:01:00.854Z,798.00
2024-01-10T02:02:01.032Z,793.00
2024-01-10T02:03:01.169Z,803.00
2024-01-10T02:04:01.099Z,798.00
2024-01-10T02:05:01.218Z,793.00
2024-01-10T02:06:01.266Z,794.00
2024-01-10T02:07:01.279Z,788.00
2024-01-10T02:08:01.330Z,798.00
2024-01-10T02:09:01.297Z,798.00
2024-01-10T02:10:01.335Z,794.00
2024-01-10T02:11:01.370Z,798.00
2024-01-10T02:12:01.419Z,790.00
2024-01-10T02:13:01.459Z,798.00
2024-01-10T02:14:01.532Z,806.00
2024-01-10T02:15:01.546Z,797.00
2024-01-10T02:16:01.604Z,803.00
2024-01-10T02:17:01.639Z,794.00
2024-01-10T02:18:01.722Z,798.00
2024-01-10T02:19:01.717Z,798.00
2024-01-10T02:20:01.831Z,787.00
2024-01-10T02:21:01.788Z,796.00
2024-01-10T02:22:01.814Z,783.00
2024-01-10T02:23:01.935Z,788.00
2024-01-10T02:24:01.883Z,796.00
2024-01-10T02:25:01.914Z,785.00
2024-01-10T02:26:01.976Z,788.00
2024-01-10T02:27:01.925Z,793.00
2024-01-10T02:28:01.936Z,794.00
2024-01-10T02:29:02.003Z,797.00
2024-01-10T02:30:01.987Z,791.00
2024-01-10T02:31:02.012Z,788.00
2024-01-10T02:32:02.049Z,785.00
2024-01-10T02:33:02.097Z,790.00
2024-01-10T02:34:02.018Z,777.00
2024-01-10T02:35:02.069Z,780.00
2024-01-10T02:36:02.017Z,776.00
2024-01-10T02:37:02.029Z,776.00
2024-01-10T02:38:02.148Z,791.00
2024-01-10T02:39:02.163Z,780.00
2024-01-10T02:40:02.103Z,797.00
2024-01-10T02:41:02.156Z,785.00
2024-01-10T02:42:02.108Z,784.00
2024-01-10T02:43:02.097Z,789.00
2024-01-10T02:44:02.182Z,784.00
2024-01-10T02:45:02.128Z,770.00
2024-01-10T02:46:02.176Z,779.00
2024-01-10T02:47:02.211Z,778.00
2024-01-10T02:48:02.265Z,770.00
2024-01-10T02:49:02.346Z,763.00
2024-01-10T02:50:02.261Z,781.00
2024-01-10T02:51:02.246Z,772.00
2024-01-10T02:52:02.268Z,775.00
2024-01-10T02:53:02.310Z,781.00
2024-01-10T02:54:02.276Z,773.00
2024-01-10T02:55:02.299Z,773.00
2024-01-10T02:56:02.318Z,773.00
2024-01-10T02:57:02.273Z,763.00
2024-01-10T02:58:02.319Z,768.00
2024-01-10T02:59:02.371Z,761.00
2024-01-10T03:00:02.385Z,762.00
2024-01-10T03:01:02.393Z,769.00
2024-01-10T03:02:02.347Z,770.00
2024-01-10T03:03:02.378Z,773.00
2024-01-10T03:04:02.416Z,774.00
2024-01-10T03:05:02.423Z,770.00
2024-01-10T03:06:02.404Z,768.00
2024-01-10T03:07:02.377Z,771.00
2024-01-10T03:08:02.456Z,770.00
2024-01-10T03:09:02.407Z,773.00
2024-01-10T03:10:03.421Z,773.00
2024-01-10T03:11:02.440Z,772.00
2024-01-10T03:12:02.450Z,769.00
2024-01-10T03:13:02.407Z,764.00
2024-01-10T03:14:02.465Z,768.00
2024-01-10T03:15:02.440Z,757.00
2024-01-10T03:16:02.436Z,759.00
2024-01-10T03:17:02.580Z,760.00
2024-01-10T03:18:02.494Z,756.00
2024-01-10T03:19:02.461Z,763.00
2024-01-10T03:20:02.430Z,747.00
2024-01-10T03:21:02.417Z,767.00
2024-01-10T03:22:02.363Z,766.00
2024-01-10T03:23:02.395Z,767.00
2024-01-10T03:24:02.379Z,763.00
2024-01-10T03:25:02.399Z,757.00
2024-01-10T03:26:02.444Z,751.00
2024-01-10T03:27:02.408Z,751.00
2024-01-10T03:28:02.410Z,743.00
2024-01-10T03:29:02.443Z,748.00
2024-01-10T03:30:02.411Z,756.00
2024-01-10T03:31:02.490Z,755.00
2024-01-10T03:32:02.415Z,752.00
2024-01-10T03:33:02.520Z,759.00
2024-01-10T03:34:02.532Z,749.00
2024-01-10T03:35:02.596Z,749.00
2024-01-10T03:36:02.468Z,754.00
2024-01-10T03:37:02.466Z,746.00
2024-01-10T03:38:02.526Z,753.00
2024-01-10T03:39:02.533Z,755.00
2024-01-10T03:40:02.527Z,738.00
2024-01-10T03:41:02.583Z,746.00
2024-01-10T03:42:02.608Z,737.00
2024-01-10T03:43:02.606Z,754.00
2024-01-10T03:44:02.673Z,753.00
2024-01-10T03:45:02.657Z,746.00
2024-01-10T03:46:02.631Z,747.00
2024-01-10T03:47:02.666Z,744.00
2024-01-10T03:48:02.679Z,750.00
2024-01-10T03:49:02.737Z,736.00
2024-01-10T03:50:02.783Z,746.00
2024-01-10T03:51:02.725Z,739.00
2024-01-10T03:52:02.735Z,734.00
2024-01-10T03:53:02.872Z,726.00
2024-01-10T03:54:02.787Z,751.00
2024-01-10T03:55:02.804Z,736.00
2024-01-10T03:56:02.826Z,748.00
2024-01-10T03:57:02.816Z,745.00
2024-01-10T03:58:02.845Z,748.00
2024-01-10T03:59:02.866Z,741.00
2024-01-10T04:00:02.900Z,746.00
2024-01-10T04:01:02.910Z,740.00
2024-01-10T04:02:02.979Z,747.00
2024-01-10T04:03:02.933Z,747.00
2024-01-10T04:04:02.945Z,739.00
2024-01-10T04:05:03.053Z,731.00
2024-01-10T04:06:02.982Z,734.00
2024-01-10T04:07:02.974Z,739.00
2024-01-10T04:08:03.152Z,731.00
2024-01-10T04:09:03.011Z,738.00
2024-01-10T04:10:03.001Z,730.00
2024-01-10T04:11:03.061Z,749.00
2024-01-10T04:12:03.067Z,733.00
2024-01-10T04:13:03.088Z,743.00
2024-01-10T04:14:03.096Z,741.00
2024-01-10T04:15:03.087Z,732.00
2024-01-10T04:16:03.152Z,734.00
2024-01-10T04:17:03.268Z,733.00
2024-01-10T04:18:03.177Z,725.00
2024-01-10T04:19:03.177Z,739.00
2024-01-10T04:20:03.279Z,732.00
2024-01-10T04:21:03.261Z,731.00
2024-01-10T04:22:03.184Z,732.00
2024-01-10T04:23:10.465Z,600.00
2024-01-10T04:24:10.419Z,600.00
2024-01-10T04:25:10.430Z,600.00
2024-01-10T04:26:10.456Z,600.00
2024-01-10T04:27:11.190Z,600.00
2024-01-10T04:28:10.429Z,600.00
2024-01-10T04:29:10.488Z,601.00
2024-01-10T04:30:10.524Z,604.00
2024-01-10T04:31:17.726Z,600.00
2024-01-10T04:32:17.762Z,600.00
2024-01-10T04:33:17.808Z,600.00
2024-01-10T04:34:17.857Z,600.00
2024-01-10T04:35:17.755Z,600.00
2024-01-10T04:36:17.726Z,605.00
2024-01-10T04:37:17.750Z,601.00
2024-01-10T04:38:17.835Z,601.00
2024-01-10T04:39:17.770Z,605.00
2024-01-10T04:40:17.755Z,602.00
2024-01-10T04:41:17.929Z,601.00
2024-01-10T04:42:17.729Z,603.00
2024-01-10T04:43:17.770Z,601.00
2024-01-10T04:44:17.770Z,605.00
2024-01-10T04:45:17.740Z,601.00
2024-01-10T04:46:17.754Z,606.00
2024-01-10T04:47:17.779Z,606.00
2024-01-10T04:48:17.829Z,601.00
2024-01-10T04:49:17.784Z,604.00
2024-01-10T04:50:17.819Z,606.00
2024-01-10T04:51:17.788Z,607.00
2024-01-10T04:52:17.760Z,603.00
2024-01-10T04:53:17.776Z,603.00
2024-01-10T04:54:17.777Z,602.00
2024-01-10T04:55:17.776Z,602.00
2024-01-10T04:56:17.755Z,604.00
2024-01-10T04:57:17.774Z,602.00
2024-01-10T04:58:17.758Z,600.00
2024-01-10T04:59:17.829Z,607.00
2024-01-10T05:00:17.755Z,604.00
2024-01-10T05:01:17.868Z,603.00
2024-01-10T05:02:17.805Z,602.00
2024-01-10T05:03:17.778Z,605.00
2024-01-10T05:04:17.760Z,609.00
2024-01-10T05:05:17.837Z,608.00
2024-01-10T05:06:17.802Z,611.00
2024-01-10T05:07:17.773Z,612.00
2024-01-10T05:08:17.858Z,614.00
2024-01-10T05:09:17.814Z,616.00
2024-01-10T05:10:17.764Z,621.00
2024-01-10T05:11:17.866Z,614.00
2024-01-10T05:12:17.747Z,619.00
2024-01-10T05:13:17.775Z,618.00
2024-01-10T05:14:17.841Z,620.00
2024-01-10T05:15:17.796Z,613.00
2024-01-10T05:16:17.803Z,620.00
2024-01-10T05:17:17.955Z,620.00
2024-01-10T05:18:17.892Z,620.00
2024-01-10T05:19:17.990Z,618.00
2024-01-10T05:20:18.037Z,617.00
2024-01-10T05:21:18.018Z,619.00
2024-01-10T05:22:18.038Z,618.00
2024-01-10T05:23:18.175Z,616.00
2024-01-10T05:24:18.156Z,612.00
2024-01-10T05:25:18.202Z,613.00
2024-01-10T05:26:18.318Z,612.00
2024-01-10T05:27:18.309Z,615.00
2024-01-10T05:28:18.376Z,616.00
2024-01-10T05:29:18.544Z,619.00
2024-01-10T05:30:18.552Z,615.00
2024-01-10T05:31:18.566Z,614.00
2024-01-10T05:32:18.625Z,615.00
2024-01-10T05:33:18.777Z,602.00
2024-01-10T05:34:18.764Z,601.00
2024-01-10T05:35:18.768Z,600.00
2024-01-10T05:36:18.809Z,606.00
2024-01-10T05:37:18.859Z,601.00
2024-01-10T05:38:18.994Z,598.00
2024-01-10T05:39:18.924Z,600.00
2024-01-10T05:40:19.006Z,605.00
2024-01-10T05:41:19.218Z,600.00
2024-01-10T05:42:19.108Z,604.00
2024-01-10T05:43:19.122Z,602.00
2024-01-10T05:44:19.239Z,603.00
2024-01-10T05:45:19.367Z,602.00
2024-01-10T05:46:19.304Z,601.00
2024-01-10T05:47:19.417Z,606.00
2024-01-10T05:48:19.525Z,605.00
2024-01-10T05:49:19.456Z,604.00
2024-01-10T05:50:19.703Z,605.00
2024-01-10T05:51:19.550Z,604.00
2024-01-10T05:52:19.605Z,600.00
2024-01-10T05:53:19.712Z,604.00
2024-01-10T05:54:19.670Z,605.00
2024-01-10T05:55:19.749Z,606.00
2024-01-10T05:56:19.911Z,601.00
2024-01-10T05:57:19.940Z,601.00
2024-01-10T05:58:19.904Z,605.00
2024-01-10T05:59:20.023Z,601.00
2024-01-10T06:00:19.975Z,603.00
2024-01-10T06:01:20.151Z,606.00
2024-01-10T06:02:20.204Z,605.00
2024-01-10T06:03:20.257Z,602.00
2024-01-10T06:04:20.212Z,604.00
2024-01-10T06:05:20.269Z,608.00
2024-01-10T06:06:20.456Z,609.00
2024-01-10T06:07:20.354Z,605.00
2024-01-10T06:08:20.535Z,603.00
2024-01-10T06:09:20.515Z,606.00
2024-01-10T06:10:20.517Z,607.00
2024-01-10T06:11:20.604Z,608.00
2024-01-10T06:12:20.697Z,608.00
2024-01-10T06:13:20.684Z,610.00
2024-01-10T06:14:20.774Z,603.00
2024-01-10T06:15:20.787Z,606.00
2024-01-10T06:16:20.902Z,608.00
2024-01-10T06:17:20.964Z,611.00
2024-01-10T06:18:21.106Z,604.00
2024-01-10T06:19:21.060Z,610.00
2024-01-10T06:20:21.055Z,611.00
2024-01-10T06:21:21.054Z,611.00
2024-01-10T06:22:21.442Z,610.00
2024-01-10T06:23:21.253Z,610.00
2024-01-10T06:24:21.204Z,609.00
2024-01-10T06:25:21.303Z,610.00
2024-01-10T06:26:21.333Z,610.00
2024-01-10T06:27:21.392Z,610.00
2024-01-10T06:28:21.447Z,612.00
2024-01-10T06:29:21.623Z,615.00
2024-01-10T06:30:21.594Z,611.00
2024-01-10T06:31:21.627Z,615.00
2024-01-10T06:32:21.790Z,618.00
2024-01-10T06:33:21.862Z,643.00
2024-01-10T06:34:21.840Z,673.00
2024-01-10T06:35:21.862Z,738.00
2024-01-10T06:36:21.819Z,785.00
2024-01-10T06:37:21.829Z,814.00
2024-01-10T06:38:21.949Z,809.00
2024-01-10T06:39:21.962Z,787.00
2024-01-10T06:40:22.028Z,800.00
2024-01-10T06:41:22.069Z,844.00
2024-01-10T06:42:22.190Z,897.00
2024-01-10T06:43:22.120Z,915.00
2024-01-10T06:44:22.454Z,925.00
2024-01-10T06:45:22.252Z,1001.00
2024-01-10T06:46:22.305Z,1000.00
2024-01-10T06:47:22.746Z,950.00
2024-01-10T06:48:22.439Z,858.00
2024-01-10T06:49:22.944Z,771.00
2024-01-10T06:50:22.552Z,739.00
2024-01-10T06:51:22.582Z,726.00
2024-01-10T06:52:22.597Z,713.00
2024-01-10T06:53:22.743Z,706.00
2024-01-10T06:54:22.676Z,683.00
2024-01-10T06:55:22.719Z,672.00
2024-01-10T06:56:22.760Z,664.00
2024-01-10T06:57:22.777Z,661.00
2024-01-10T06:58:22.741Z,659.00
2024-01-10T06:59:22.881Z,651.00
2024-01-10T07:00:22.865Z,651.00
2024-01-10T07:01:22.946Z,651.00
2024-01-10T07:02:23.067Z,651.00
2024-01-10T07:03:23.128Z,650.00
2024-01-10T07:04:24.938Z,652.00
2024-01-10T07:05:23.244Z,652.00
2024-01-10T07:06:23.438Z,652.00
2024-01-10T07:07:23.306Z,660.00
2024-01-10T07:08:23.276Z,658.00
2024-01-10T07:09:23.417Z,660.00
2024-01-10T07:10:23.338Z,661.00
2024-01-10T07:11:23.726Z,664.00
2024-01-10T07:12:23.380Z,665.00
2024-01-10T07:13:23.407Z,669.00
2024-01-10T07:14:23.521Z,671.00
2024-01-10T07:15:23.549Z,671.00
2024-01-10T07:16:23.932Z,672.00
2024-01-10T07:17:23.500Z,672.00
2024-01-10T07:18:24.437Z,669.00
2024-01-10T07:19:23.720Z,678.00
2024-01-10T07:20:23.734Z,677.00
2024-01-10T07:21:23.902Z,680.00
2024-01-10T07:22:23.935Z,681.00
2024-01-10T07:23:26.507Z,688.00
2024-01-10T07:24:23.773Z,692.00
2024-01-10T07:25:23.850Z,694.00
2024-01-10T07:26:23.764Z,687.00
2024-01-10T07:27:23.668Z,693.00
2024-01-10T07:28:23.785Z,694.00
2024-01-10T07:29:23.784Z,695.00
2024-01-10T07:30:23.702Z,703.00
2024-01-10T07:31:24.433Z,705.00
2024-01-10T07:32:24.013Z,709.00
2024-01-10T07:33:23.995Z,707.00
2024-01-10T07:34:23.682Z,716.00
2024-01-10T07:35:23.763Z,709.00
2024-01-10T07:36:23.743Z,714.00
2024-01-10T07:37:25.011Z,774.00
2024-01-10T07:38:23.824Z,932.00
2024-01-10T07:39:23.824Z,1109.00
2024-01-10T07:40:23.750Z,1208.00
2024-01-10T07:41:23.992Z,1278.00
2024-01-10T07:42:24.064Z,1239.00
2024-01-10T07:43:23.722Z,1152.00
2024-01-10T07:44:23.829Z,1085.00
2024-01-10T07:45:23.940Z,1048.00
2024-01-10T07:46:23.981Z,982.00
2024-01-10T07:47:23.739Z,929.00
2024-01-10T07:48:24.056Z,917.00
2024-01-10T07:49:23.766Z,901.00
2024-01-10T07:50:27.944Z,902.00
2024-01-10T07:51:23.847Z,877.00
2024-01-10T07:52:25.672Z,863.00
2024-01-10T07:53:24.052Z,848.00
2024-01-10T07:54:24.042Z,840.00
2024-01-10T07:55:23.736Z,822.00
2024-01-10T07:56:23.886Z,821.00
2024-01-10T07:57:24.171Z,819.00
2024-01-10T07:58:23.735Z,814.00
2024-01-10T07:59:23.791Z,809.00
2024-01-10T08:00:23.744Z,807.00
2024-01-10T08:01:23.896Z,815.00
2024-01-10T08:02:24.033Z,801.00
2024-01-10T08:03:25.834Z,802.00
2024-01-10T08:04:23.909Z,801.00
2024-01-10T08:05:24.158Z,803.00
2024-01-10T08:06:29.936Z,808.00
2024-01-10T08:07:26.999Z,808.00
2024-01-10T08:08:24.306Z,809.00
2024-01-10T08:09:24.012Z,811.00
2024-01-10T08:10:24.162Z,817.00
2024-01-10T08:11:24.109Z,815.00
2024-01-10T08:12:25.098Z,816.00
2024-01-10T08:13:26.119Z,823.00
2024-01-10T08:14:24.178Z,829.00
2024-01-10T08:15:24.048Z,833.00
2024-01-10T08:16:24.657Z,831.00
2024-01-10T08:17:24.123Z,833.00
2024-01-10T08:18:24.163Z,837.00
2024-01-10T08:19:25.137Z,837.00
2024-01-10T08:20:24.277Z,837.00
2024-01-10T08:21:24.433Z,828.00
2024-01-10T08:22:25.678Z,823.00
2024-01-10T08:23:24.438Z,828.00
2024-01-10T08:24:25.011Z,830.00
2024-01-10T08:25:24.132Z,824.00
2024-01-10T08:26:25.865Z,824.00
2024-01-10T08:27:24.162Z,827.00
2024-01-10T08:28:24.126Z,817.00
2024-01-10T08:29:24.793Z,814.00
2024-01-10T08:30:24.354Z,813.00
2024-01-10T08:31:24.128Z,815.00
2024-01-10T08:32:25.035Z,833.00
2024-01-10T08:33:24.153Z,849.00
2024-01-10T08:34:24.071Z,931.00
2024-01-10T08:35:27.860Z,977.00
2024-01-10T08:36:25.129Z,978.00
2024-01-10T08:37:24.508Z,978.00
2024-01-10T08:38:24.065Z,974.00
2024-01-10T08:39:24.273Z,944.00
2024-01-10T08:40:24.023Z,912.00
2024-01-10T08:41:26.033Z,874.00
2024-01-10T08:42:24.472Z,839.00
2024-01-10T08:43:24.024Z,811.00
2024-01-10T08:44:24.259Z,799.00
2024-01-10T08:45:26.546Z,788.00
2024-01-10T08:46:24.152Z,777.00
2024-01-10T08:47:24.996Z,763.00
2024-01-10T08:48:27.562Z,747.00
2024-01-10T08:49:40.184Z,747.00
2024-01-10T08:50:24.268Z,747.00
2024-01-10T08:51:24.139Z,747.00
2024-01-10T08:52:25.328Z,734.00
2024-01-10T08:53:25.301Z,715.00
2024-01-10T08:54:24.151Z,712.00
2024-01-10T08:55:24.137Z,700.00
2024-01-10T08:56:24.370Z,692.00
2024-01-10T08:57:25.454Z,693.00
2024-01-10T08:58:24.864Z,694.00
2024-01-10T08:59:27.824Z,693.00
2024-01-10T09:00:27.285Z,693.00
2024-01-10T09:01:25.117Z,693.00
2024-01-10T09:02:24.143Z,694.00
2024-01-10T09:03:24.577Z,693.00
2024-01-10T09:04:24.129Z,691.00
2024-01-10T09:05:24.402Z,684.00
2024-01-10T09:06:24.175Z,680.00
2024-01-10T09:07:24.371Z,678.00
2024-01-10T09:08:24.801Z,683.00
2024-01-10T09:09:24.129Z,687.00
2024-01-10T09:10:24.862Z,673.00
2024-01-10T09:11:25.343Z,679.00
2024-01-10T09:12:24.744Z,706.00
2024-01-10T09:13:25.424Z,707.00
2024-01-10T09:14:25.891Z,718.00
2024-01-10T09:15:24.630Z,740.00
2024-01-10T09:16:25.777Z,756.00
2024-01-10T09:17:25.123Z,768.00
2024-01-10T09:18:26.106Z,764.00
2024-01-10T09:19:24.672Z,751.00
2024-01-10T09:20:35.015Z,750.00
2024-01-10T09:21:28.627Z,750.00
2024-01-10T09:22:32.348Z,600.00
2024-01-10T09:23:32.611Z,600.00
2024-01-10T09:24:32.210Z,600.00
2024-01-10T09:25:34.124Z,600.00
2024-01-10T09:26:32.256Z,600.00
2024-01-10T09:27:33.502Z,600.00
2024-01-10T09:28:32.354Z,615.00
2024-01-10T09:29:32.396Z,625.00
2024-01-10T09:30:33.358Z,635.00
2024-01-10T09:31:32.469Z,657.00
2024-01-10T09:32:32.635Z,695.00
2024-01-10T09:33:32.695Z,723.00
2024-01-10T09:34:32.469Z,821.00
2024-01-10T09:35:32.705Z,922.00
2024-01-10T09:36:32.664Z,1027.00
2024-01-10T09:37:32.757Z,1072.00
2024-01-10T09:38:32.743Z,1117.00
2024-01-10T09:39:32.742Z,1149.00
2024-01-10T09:40:32.779Z,1128.00
2024-01-10T09:41:32.988Z,1069.00
2024-01-10T09:42:39.484Z,997.00
2024-01-10T09:43:33.527Z,952.00
2024-01-10T09:44:32.985Z,861.00
2024-01-10T09:45:33.395Z,778.00
2024-01-10T09:46:32.852Z,691.00
2024-01-10T09:47:33.781Z,658.00
2024-01-10T09:48:37.755Z,633.00
2024-01-10T09:49:33.624Z,624.00
2024-01-10T09:50:34.764Z,609.00
2024-01-10T09:51:33.054Z,603.00
2024-01-10T09:52:33.137Z,590.00
2024-01-10T09:53:33.828Z,583.00
2024-01-10T09:54:34.608Z,600.00
2024-01-10T09:55:34.029Z,602.00
2024-01-10T09:56:33.598Z,600.00
2024-01-10T09:57:34.786Z,604.00
2024-01-10T09:58:34.092Z,603.00
2024-01-10T09:59:35.539Z,600.00
2024-01-10T10:00:35.155Z,602.00
2024-01-10T10:01:33.366Z,602.00
2024-01-10T10:02:33.222Z,603.00
2024-01-10T10:03:33.820Z,603.00
2024-01-10T10:04:33.062Z,603.00
2024-01-10T10:05:35.052Z,607.00
2024-01-10T10:06:33.176Z,609.00
2024-01-10T10:07:33.027Z,608.00
2024-01-10T10:08:35.397Z,609.00
2024-01-10T10:09:32.987Z,610.00
2024-01-10T10:10:33.037Z,607.00
2024-01-10T10:11:34.131Z,607.00
2024-01-10T10:12:33.825Z,611.00
2024-01-10T10:13:33.002Z,612.00
2024-01-10T10:14:34.284Z,613.00
2024-01-10T10:15:37.529Z,616.00
2024-01-10T10:16:35.899Z,616.00
2024-01-10T10:17:34.548Z,616.00
2024-01-10T10:18:33.582Z,616.00
2024-01-10T10:19:40.377Z,617.00
2024-01-10T10:20:35.490Z,616.00
2024-01-10T10:21:34.405Z,617.00
2024-01-10T10:22:34.094Z,620.00
2024-01-10T10:23:33.582Z,624.00
2024-01-10T10:24:38.770Z,630.00
2024-01-10T10:25:38.841Z,616.00
2024-01-10T10:26:34.607Z,617.00
2024-01-10T10:27:35.189Z,618.00
2024-01-10T10:28:36.130Z,633.00
2024-01-10T10:29:33.118Z,620.00
2024-01-10T10:30:33.629Z,651.00
2024-01-10T10:31:33.089Z,771.00
2024-01-10T10:32:34.511Z,998.00
2024-01-10T10:33:34.168Z,1321.00
2024-01-10T10:34:33.080Z,1337.00
2024-01-10T10:35:38.340Z,1255.00
2024-01-10T10:36:34.399Z,1216.00
2024-01-10T10:37:39.812Z,1168.00
2024-01-10T10:38:33.073Z,1143.00
2024-01-10T10:39:33.049Z,1094.00
2024-01-10T10:40:33.894Z,1067.00
2024-01-10T10:41:35.100Z,1260.00
2024-01-10T10:42:33.007Z,1251.00
2024-01-10T10:43:33.166Z,1233.00
2024-01-10T10:44:33.075Z,1238.00
2024-01-10T10:45:33.295Z,1226.00
2024-01-10T10:46:33.140Z,1207.00
2024-01-10T10:47:33.144Z,1192.00
2024-01-10T10:48:34.783Z,1165.00
2024-01-10T10:49:33.136Z,1136.00
2024-01-10T10:50:33.097Z,1119.00
2024-01-10T10:51:34.649Z,1096.00
2024-01-10T10:52:33.191Z,1070.00
2024-01-10T10:53:33.318Z,1058.00
2024-01-10T10:54:33.230Z,1043.00
2024-01-10T10:55:33.291Z,1023.00
2024-01-10T10:56:34.300Z,1008.00
2024-01-10T10:57:33.871Z,1000.00
2024-01-10T10:58:33.430Z,986.00
2024-01-10T10:59:33.469Z,975.00
2024-01-10T11:00:33.449Z,969.00
2024-01-10T11:01:33.491Z,944.00
2024-01-10T11:02:34.029Z,944.00
2024-01-10T11:03:33.570Z,950.00
2024-01-10T11:04:33.698Z,947.00
2024-01-10T11:05:33.679Z,944.00
2024-01-10T11:06:33.718Z,941.00
2024-01-10T11:07:33.646Z,938.00
2024-01-10T11:08:33.676Z,932.00
2024-01-10T11:09:33.796Z,924.00
2024-01-10T11:10:35.168Z,918.00
2024-01-10T11:11:33.812Z,913.00
2024-01-10T11:12:33.881Z,910.00
2024-01-10T11:13:33.951Z,903.00
2024-01-10T11:14:34.401Z,902.00
2024-01-10T11:15:34.146Z,890.00
2024-01-10T11:16:35.091Z,883.00
2024-01-10T11:17:34.992Z,886.00
2024-01-10T11:18:34.381Z,873.00
2024-01-10T11:19:34.426Z,868.00
2024-01-10T11:20:34.490Z,862.00
2024-01-10T11:21:35.186Z,861.00
2024-01-10T11:22:34.639Z,855.00
2024-01-10T11:23:34.812Z,852.00
2024-01-10T11:24:34.888Z,843.00
2024-01-10T11:25:34.675Z,820.00
2024-01-10T11:26:35.216Z,850.00
2024-01-10T11:27:34.850Z,875.00
2024-01-10T11:28:36.611Z,918.00
2024-01-10T11:29:38.460Z,980.00
2024-01-10T11:30:35.209Z,981.00
2024-01-10T11:31:35.350Z,982.00
2024-01-10T11:32:36.418Z,930.00
2024-01-10T11:33:35.940Z,870.00
2024-01-10T11:34:35.115Z,843.00
2024-01-10T11:35:35.327Z,821.00
2024-01-10T11:36:36.262Z,818.00
2024-01-10T11:37:35.063Z,799.00
2024-01-10T11:38:35.630Z,786.00
2024-01-10T11:39:35.122Z,771.00
2024-01-10T11:40:35.668Z,750.00
2024-01-10T11:41:35.375Z,743.00
2024-01-10T11:42:35.226Z,733.00
2024-01-10T11:43:35.287Z,726.00
2024-01-10T11:44:35.739Z,718.00
2024-01-10T11:45:35.579Z,703.00
2024-01-10T11:46:35.423Z,688.00
2024-01-10T11:47:35.835Z,680.00
2024-01-10T11:48:35.583Z,683.00
2024-01-10T11:49:35.540Z,675.00
2024-01-10T11:50:36.811Z,674.00
2024-01-10T11:51:35.957Z,667.00
2024-01-10T11:52:35.958Z,669.00
2024-01-10T11:53:35.840Z,665.00
2024-01-10T11:54:37.082Z,664.00
2024-01-10T11:55:36.364Z,661.00
2024-01-10T11:56:42.808Z,660.00
2024-01-10T11:57:37.020Z,659.00
2024-01-10T11:58:35.939Z,655.00
2024-01-10T11:59:36.413Z,656.00
2024-01-10T12:00:36.003Z,653.00
2024-01-10T12:01:36.122Z,650.00
2024-01-10T12:02:35.972Z,650.00
2024-01-10T12:03:40.421Z,648.00
2024-01-10T12:04:45.257Z,647.00
2024-01-10T12:05:37.103Z,648.00
2024-01-10T12:06:37.017Z,648.00
2024-01-10T12:07:36.006Z,643.00
2024-01-10T12:08:36.035Z,640.00
2024-01-10T12:09:35.988Z,640.00
2024-01-10T12:10:36.814Z,635.00
2024-01-10T12:11:35.966Z,635.00
2024-01-10T12:12:36.495Z,635.00
2024-01-10T12:13:37.052Z,632.00
2024-01-10T12:14:36.931Z,632.00
2024-01-10T12:15:37.015Z,628.00
2024-01-10T12:16:35.994Z,630.00
2024-01-10T12:17:36.225Z,633.00
2024-01-10T12:18:36.023Z,624.00
2024-01-10T12:19:36.006Z,631.00
2024-01-10T12:20:35.948Z,629.00
2024-01-10T12:21:35.994Z,630.00
2024-01-10T12:22:35.987Z,627.00
2024-01-10T12:23:35.998Z,621.00
2024-01-10T12:24:36.006Z,621.00
2024-01-10T12:25:36.028Z,624.00
2024-01-10T12:26:35.984Z,622.00
2024-01-10T12:27:36.036Z,620.00
2024-01-10T12:28:36.055Z,620.00